sensor_id;sensor_type;location;lat;lon;timestamp;temperature;humidity
18177;DHT22;9213;50.858;3.964;2023-09-19T00:00:30;18.90;57.70
18177;DHT22;9213;50.858;3.964;2023-09-19T00:02:59;18.80;57.60
18177;DHT22;9213;50.858;3.964;2023-09-19T00:05:29;18.90;57.70
18177;DHT22;9213;50.858;3.964;2023-09-19T00:07:57;18.90;57.70
18177;DHT22;9213;50.858;3.964;2023-09-19T00:10:25;18.80;57.60
18177;DHT22;9213;50.858;3.964;2023-09-19T00:12:52;18.80;57.50
18177;DHT22;9213;50.858;3.964;2023-09-19T00:15:21;18.90;57.60
18177;DHT22;9213;50.858;3.964;2023-09-19T00:17:48;18.90;57.50
18177;DHT22;9213;50.858;3.964;2023-09-19T00:20:18;18.90;57.50
18177;DHT22;9213;50.858;3.964;2023-09-19T00:22:48;18.90;57.30
18177;DHT22;9213;50.858;3.964;2023-09-19T00:25:16;18.90;57.30
18177;DHT22;9213;50.858;3.964;2023-09-19T00:27:43;18.90;57.20
18177;DHT22;9213;50.858;3.964;2023-09-19T00:30:13;18.90;57.20
18177;DHT22;9213;50.858;3.964;2023-09-19T00:32:45;18.80;57.10
18177;DHT22;9213;50.858;3.964;2023-09-19T00:35:13;18.80;57.00
18177;DHT22;9213;50.858;3.964;2023-09-19T00:37:42;18.80;57.10
18177;DHT22;9213;50.858;3.964;2023-09-19T00:40:11;18.80;57.10
18177;DHT22;9213;50.858;3.964;2023-09-19T00:42:41;18.80;57.00
18177;DHT22;9213;50.858;3.964;2023-09-19T00:45:09;18.80;56.80
18177;DHT22;9213;50.858;3.964;2023-09-19T00:47:38;18.80;56.60
18177;DHT22;9213;50.858;3.964;2023-09-19T00:50:05;18.80;56.50
18177;DHT22;9213;50.858;3.964;2023-09-19T00:52:33;18.70;56.30
18177;DHT22;9213;50.858;3.964;2023-09-19T00:55:02;18.70;56.10
18177;DHT22;9213;50.858;3.964;2023-09-19T00:57:32;18.70;56.10
18177;DHT22;9213;50.858;3.964;2023-09-19T01:00:00;18.70;55.90
18177;DHT22;9213;50.858;3.964;2023-09-19T01:02:31;18.70;56.50
18177;DHT22;9213;50.858;3.964;2023-09-19T01:04:58;18.70;55.70
18177;DHT22;9213;50.858;3.964;2023-09-19T01:07:25;18.70;55.70
18177;DHT22;9213;50.858;3.964;2023-09-19T01:09:52;18.70;55.80
18177;DHT22;9213;50.858;3.964;2023-09-19T01:12:27;18.70;55.80
18177;DHT22;9213;50.858;3.964;2023-09-19T01:15:05;18.70;55.60
18177;DHT22;9213;50.858;3.964;2023-09-19T01:17:39;18.80;55.50
18177;DHT22;9213;50.858;3.964;2023-09-19T01:20:19;18.80;55.40
18177;DHT22;9213;50.858;3.964;2023-09-19T01:22:56;18.80;55.50
18177;DHT22;9213;50.858;3.964;2023-09-19T01:28:43;18.80;55.60
18177;DHT22;9213;50.858;3.964;2023-09-19T01:31:14;18.70;55.40
18177;DHT22;9213;50.858;3.964;2023-09-19T01:33:57;18.70;55.60
18177;DHT22;9213;50.858;3.964;2023-09-19T01:36:26;18.70;55.70
18177;DHT22;9213;50.858;3.964;2023-09-19T01:38:55;18.70;55.70
18177;DHT22;9213;50.858;3.964;2023-09-19T01:41:30;18.60;55.80
18177;DHT22;9213;50.858;3.964;2023-09-19T01:44:00;18.60;55.80
18177;DHT22;9213;50.858;3.964;2023-09-19T01:46:34;18.60;55.90
18177;DHT22;9213;50.858;3.964;2023-09-19T01:49:14;18.70;56.10
18177;DHT22;9213;50.858;3.964;2023-09-19T01:51:48;18.70;55.90
18177;DHT22;9213;50.858;3.964;2023-09-19T01:54:23;18.70;55.80
18177;DHT22;9213;50.858;3.964;2023-09-19T01:56:59;18.70;55.70
18177;DHT22;9213;50.858;3.964;2023-09-19T01:59:35;18.80;55.60
18177;DHT22;9213;50.858;3.964;2023-09-19T02:02:06;18.80;55.50
18177;DHT22;9213;50.858;3.964;2023-09-19T02:04:34;18.80;55.40
18177;DHT22;9213;50.858;3.964;2023-09-19T02:07:02;18.90;55.40
18177;DHT22;9213;50.858;3.964;2023-09-19T02:09:31;18.90;55.20
18177;DHT22;9213;50.858;3.964;2023-09-19T02:11:59;18.90;55.00
18177;DHT22;9213;50.858;3.964;2023-09-19T02:14:26;18.90;54.80
18177;DHT22;9213;50.858;3.964;2023-09-19T02:16:55;18.90;54.80
18177;DHT22;9213;50.858;3.964;2023-09-19T02:19:23;19.00;54.60
18177;DHT22;9213;50.858;3.964;2023-09-19T02:21:50;19.00;54.40
18177;DHT22;9213;50.858;3.964;2023-09-19T02:24:18;19.00;54.30
18177;DHT22;9213;50.858;3.964;2023-09-19T02:26:45;19.00;54.10
18177;DHT22;9213;50.858;3.964;2023-09-19T02:29:12;19.00;53.80
18177;DHT22;9213;50.858;3.964;2023-09-19T02:31:39;19.00;53.60
18177;DHT22;9213;50.858;3.964;2023-09-19T02:34:06;19.00;53.50
18177;DHT22;9213;50.858;3.964;2023-09-19T02:36:36;19.00;54.10
18177;DHT22;9213;50.858;3.964;2023-09-19T02:39:03;19.00;53.30
18177;DHT22;9213;50.858;3.964;2023-09-19T02:41:31;19.00;53.40
18177;DHT22;9213;50.858;3.964;2023-09-19T02:43:58;19.00;53.40
18177;DHT22;9213;50.858;3.964;2023-09-19T02:46:27;19.00;53.40
18177;DHT22;9213;50.858;3.964;2023-09-19T02:48:54;18.90;53.50
18177;DHT22;9213;50.858;3.964;2023-09-19T02:51:21;18.90;53.60
18177;DHT22;9213;50.858;3.964;2023-09-19T02:53:50;18.90;53.60
18177;DHT22;9213;50.858;3.964;2023-09-19T02:56:18;18.90;53.80
18177;DHT22;9213;50.858;3.964;2023-09-19T02:58:45;18.90;54.00
18177;DHT22;9213;50.858;3.964;2023-09-19T03:01:14;18.90;54.30
18177;DHT22;9213;50.858;3.964;2023-09-19T03:03:41;18.90;54.60
18177;DHT22;9213;50.858;3.964;2023-09-19T03:06:08;18.90;54.80
18177;DHT22;9213;50.858;3.964;2023-09-19T03:08:35;18.90;55.00
18177;DHT22;9213;50.858;3.964;2023-09-19T03:11:06;18.90;55.00
18177;DHT22;9213;50.858;3.964;2023-09-19T03:13:36;18.90;55.20
18177;DHT22;9213;50.858;3.964;2023-09-19T03:16:03;18.90;55.30
18177;DHT22;9213;50.858;3.964;2023-09-19T03:18:31;18.90;55.50
18177;DHT22;9213;50.858;3.964;2023-09-19T03:20:58;18.90;55.50
18177;DHT22;9213;50.858;3.964;2023-09-19T03:23:27;18.90;55.50
18177;DHT22;9213;50.858;3.964;2023-09-19T03:25:54;18.90;55.30
18177;DHT22;9213;50.858;3.964;2023-09-19T03:28:23;18.90;55.30
18177;DHT22;9213;50.858;3.964;2023-09-19T03:31:00;18.90;55.50
18177;DHT22;9213;50.858;3.964;2023-09-19T03:33:27;18.90;55.60
18177;DHT22;9213;50.858;3.964;2023-09-19T03:35:54;18.90;55.50
18177;DHT22;9213;50.858;3.964;2023-09-19T03:38:24;18.80;55.40
18177;DHT22;9213;50.858;3.964;2023-09-19T03:40:51;18.90;55.50
18177;DHT22;9213;50.858;3.964;2023-09-19T03:43:18;18.90;55.50
18177;DHT22;9213;50.858;3.964;2023-09-19T03:45:46;18.90;55.50
18177;DHT22;9213;50.858;3.964;2023-09-19T03:48:14;18.90;55.40
18177;DHT22;9213;50.858;3.964;2023-09-19T03:50:41;18.90;55.30
18177;DHT22;9213;50.858;3.964;2023-09-19T03:53:09;18.90;55.10
18177;DHT22;9213;50.858;3.964;2023-09-19T03:55:36;18.80;55.00
18177;DHT22;9213;50.858;3.964;2023-09-19T03:58:04;18.80;55.00
18177;DHT22;9213;50.858;3.964;2023-09-19T04:00:31;18.70;55.10
18177;DHT22;9213;50.858;3.964;2023-09-19T04:03:01;18.70;55.90
18177;DHT22;9213;50.858;3.964;2023-09-19T04:05:31;18.60;55.30
18177;DHT22;9213;50.858;3.964;2023-09-19T04:07:59;18.60;55.40
18177;DHT22;9213;50.858;3.964;2023-09-19T04:10:26;18.50;55.50
18177;DHT22;9213;50.858;3.964;2023-09-19T04:12:54;18.50;55.70
18177;DHT22;9213;50.858;3.964;2023-09-19T04:15:21;18.40;55.70
18177;DHT22;9213;50.858;3.964;2023-09-19T04:17:49;18.40;55.80
18177;DHT22;9213;50.858;3.964;2023-09-19T04:20:17;18.30;55.80
18177;DHT22;9213;50.858;3.964;2023-09-19T04:22:45;18.30;56.00
18177;DHT22;9213;50.858;3.964;2023-09-19T04:25:13;18.30;56.00
18177;DHT22;9213;50.858;3.964;2023-09-19T04:27:40;18.20;56.00
18177;DHT22;9213;50.858;3.964;2023-09-19T04:30:08;18.20;56.10
18177;DHT22;9213;50.858;3.964;2023-09-19T04:32:37;18.20;56.30
18177;DHT22;9213;50.858;3.964;2023-09-19T04:35:06;18.10;56.30
18177;DHT22;9213;50.858;3.964;2023-09-19T04:37:37;18.10;56.50
18177;DHT22;9213;50.858;3.964;2023-09-19T04:40:06;18.10;56.70
18177;DHT22;9213;50.858;3.964;2023-09-19T04:42:38;18.00;56.70
18177;DHT22;9213;50.858;3.964;2023-09-19T04:45:06;18.00;56.80
18177;DHT22;9213;50.858;3.964;2023-09-19T04:47:35;18.00;57.00
18177;DHT22;9213;50.858;3.964;2023-09-19T04:50:07;18.00;57.10
18177;DHT22;9213;50.858;3.964;2023-09-19T04:52:39;18.00;57.20
18177;DHT22;9213;50.858;3.964;2023-09-19T04:55:08;17.90;57.30
18177;DHT22;9213;50.858;3.964;2023-09-19T04:57:36;17.90;57.40
18177;DHT22;9213;50.858;3.964;2023-09-19T05:00:05;17.90;57.40
18177;DHT22;9213;50.858;3.964;2023-09-19T05:02:38;17.90;57.50
18177;DHT22;9213;50.858;3.964;2023-09-19T05:05:06;17.90;57.60
18177;DHT22;9213;50.858;3.964;2023-09-19T05:07:33;17.90;57.70
18177;DHT22;9213;50.858;3.964;2023-09-19T05:10:02;17.90;57.70
18177;DHT22;9213;50.858;3.964;2023-09-19T05:12:31;18.00;57.80
18177;DHT22;9213;50.858;3.964;2023-09-19T05:14:58;18.00;57.70
18177;DHT22;9213;50.858;3.964;2023-09-19T05:17:26;18.10;57.80
18177;DHT22;9213;50.858;3.964;2023-09-19T05:19:53;18.10;57.60
18177;DHT22;9213;50.858;3.964;2023-09-19T05:22:20;18.10;58.30
18177;DHT22;9213;50.858;3.964;2023-09-19T05:24:47;18.20;57.50
18177;DHT22;9213;50.858;3.964;2023-09-19T05:27:15;18.10;57.40
18177;DHT22;9213;50.858;3.964;2023-09-19T05:29:43;18.20;57.40
18177;DHT22;9213;50.858;3.964;2023-09-19T05:32:10;18.20;57.40
18177;DHT22;9213;50.858;3.964;2023-09-19T05:34:37;18.20;57.40
18177;DHT22;9213;50.858;3.964;2023-09-19T05:37:04;18.10;57.50
18177;DHT22;9213;50.858;3.964;2023-09-19T05:39:32;18.10;57.50
18177;DHT22;9213;50.858;3.964;2023-09-19T05:41:59;18.10;57.60
18177;DHT22;9213;50.858;3.964;2023-09-19T05:44:28;18.10;57.60
18177;DHT22;9213;50.858;3.964;2023-09-19T05:46:55;18.10;57.70
18177;DHT22;9213;50.858;3.964;2023-09-19T05:49:23;18.10;57.70
18177;DHT22;9213;50.858;3.964;2023-09-19T05:51:51;18.10;57.70
18177;DHT22;9213;50.858;3.964;2023-09-19T05:54:19;18.20;57.70
18177;DHT22;9213;50.858;3.964;2023-09-19T05:56:46;18.20;57.60
18177;DHT22;9213;50.858;3.964;2023-09-19T05:59:14;18.20;57.60
18177;DHT22;9213;50.858;3.964;2023-09-19T06:01:43;18.20;57.60
18177;DHT22;9213;50.858;3.964;2023-09-19T06:04:10;18.30;57.60
18177;DHT22;9213;50.858;3.964;2023-09-19T06:06:37;18.40;57.40
18177;DHT22;9213;50.858;3.964;2023-09-19T06:09:06;18.40;57.30
18177;DHT22;9213;50.858;3.964;2023-09-19T06:11:34;18.50;57.20
18177;DHT22;9213;50.858;3.964;2023-09-19T06:14:01;18.60;57.00
18177;DHT22;9213;50.858;3.964;2023-09-19T06:16:28;18.70;57.00
18177;DHT22;9213;50.858;3.964;2023-09-19T06:18:57;18.70;56.70
18177;DHT22;9213;50.858;3.964;2023-09-19T06:21:25;18.80;56.40
18177;DHT22;9213;50.858;3.964;2023-09-19T06:23:52;18.90;56.40
18177;DHT22;9213;50.858;3.964;2023-09-19T06:26:19;18.90;56.30
18177;DHT22;9213;50.858;3.964;2023-09-19T06:28:46;19.00;56.20
18177;DHT22;9213;50.858;3.964;2023-09-19T06:31:13;19.00;56.00
18177;DHT22;9213;50.858;3.964;2023-09-19T06:33:40;19.10;56.00
18177;DHT22;9213;50.858;3.964;2023-09-19T06:36:10;19.20;55.70
18177;DHT22;9213;50.858;3.964;2023-09-19T06:38:37;19.30;55.50
18177;DHT22;9213;50.858;3.964;2023-09-19T06:41:04;19.50;55.30
18177;DHT22;9213;50.858;3.964;2023-09-19T06:43:33;19.50;55.00
18177;DHT22;9213;50.858;3.964;2023-09-19T06:46:00;19.70;54.70
18177;DHT22;9213;50.858;3.964;2023-09-19T06:48:27;19.80;54.40
18177;DHT22;9213;50.858;3.964;2023-09-19T06:50:56;20.00;54.30
18177;DHT22;9213;50.858;3.964;2023-09-19T06:53:25;20.20;54.00
18177;DHT22;9213;50.858;3.964;2023-09-19T06:55:52;20.50;53.60
18177;DHT22;9213;50.858;3.964;2023-09-19T06:58:19;20.80;52.70
18177;DHT22;9213;50.858;3.964;2023-09-19T07:00:46;21.20;51.70
18177;DHT22;9213;50.858;3.964;2023-09-19T07:03:15;21.60;50.70
18177;DHT22;9213;50.858;3.964;2023-09-19T07:05:48;22.00;49.70
18177;DHT22;9213;50.858;3.964;2023-09-19T07:08:15;22.50;48.80
18177;DHT22;9213;50.858;3.964;2023-09-19T07:10:43;23.00;47.60
18177;DHT22;9213;50.858;3.964;2023-09-19T07:13:14;23.60;46.10
18177;DHT22;9213;50.858;3.964;2023-09-19T07:15:43;24.20;44.50
18177;DHT22;9213;50.858;3.964;2023-09-19T07:18:13;24.80;42.80
18177;DHT22;9213;50.858;3.964;2023-09-19T07:20:42;25.40;41.10
18177;DHT22;9213;50.858;3.964;2023-09-19T07:23:14;25.80;39.50
18177;DHT22;9213;50.858;3.964;2023-09-19T07:25:43;26.20;38.70
18177;DHT22;9213;50.858;3.964;2023-09-19T07:28:10;26.50;37.70
18177;DHT22;9213;50.858;3.964;2023-09-19T07:30:37;26.70;37.30
18177;DHT22;9213;50.858;3.964;2023-09-19T07:33:05;26.90;36.80
18177;DHT22;9213;50.858;3.964;2023-09-19T07:35:32;27.00;36.80
18177;DHT22;9213;50.858;3.964;2023-09-19T07:37:59;27.10;36.50
18177;DHT22;9213;50.858;3.964;2023-09-19T07:40:27;27.30;36.20
18177;DHT22;9213;50.858;3.964;2023-09-19T07:42:56;27.50;35.80
18177;DHT22;9213;50.858;3.964;2023-09-19T07:45:27;27.70;35.10
18177;DHT22;9213;50.858;3.964;2023-09-19T07:47:55;27.90;34.60
18177;DHT22;9213;50.858;3.964;2023-09-19T07:50:23;28.00;34.70
18177;DHT22;9213;50.858;3.964;2023-09-19T07:52:52;28.20;34.50
18177;DHT22;9213;50.858;3.964;2023-09-19T07:55:20;28.30;34.00
18177;DHT22;9213;50.858;3.964;2023-09-19T07:57:49;28.40;33.60
18177;DHT22;9213;50.858;3.964;2023-09-19T08:00:18;28.60;33.20
18177;DHT22;9213;50.858;3.964;2023-09-19T08:02:45;28.60;32.70
18177;DHT22;9213;50.858;3.964;2023-09-19T08:05:13;28.70;32.80
18177;DHT22;9213;50.858;3.964;2023-09-19T08:07:43;28.70;32.50
18177;DHT22;9213;50.858;3.964;2023-09-19T08:10:11;28.70;32.10
18177;DHT22;9213;50.858;3.964;2023-09-19T08:12:39;28.60;32.50
18177;DHT22;9213;50.858;3.964;2023-09-19T08:15:12;28.50;32.40
18177;DHT22;9213;50.858;3.964;2023-09-19T08:17:40;28.40;32.70
18177;DHT22;9213;50.858;3.964;2023-09-19T08:20:08;28.40;33.00
18177;DHT22;9213;50.858;3.964;2023-09-19T08:22:43;28.40;32.90
18177;DHT22;9213;50.858;3.964;2023-09-19T08:25:11;28.40;32.80
18177;DHT22;9213;50.858;3.964;2023-09-19T08:27:38;28.50;32.90
18177;DHT22;9213;50.858;3.964;2023-09-19T08:30:06;28.50;33.10
18177;DHT22;9213;50.858;3.964;2023-09-19T08:32:33;28.60;33.20
18177;DHT22;9213;50.858;3.964;2023-09-19T08:35:01;28.60;32.50
18177;DHT22;9213;50.858;3.964;2023-09-19T08:37:30;28.60;32.00
18177;DHT22;9213;50.858;3.964;2023-09-19T08:39:58;28.50;32.30
18177;DHT22;9213;50.858;3.964;2023-09-19T08:42:24;28.40;32.20
18177;DHT22;9213;50.858;3.964;2023-09-19T08:44:52;28.30;32.80
18177;DHT22;9213;50.858;3.964;2023-09-19T08:47:27;28.20;32.70
18177;DHT22;9213;50.858;3.964;2023-09-19T08:50:07;28.10;33.40
18177;DHT22;9213;50.858;3.964;2023-09-19T08:52:42;28.10;34.00
18177;DHT22;9213;50.858;3.964;2023-09-19T08:55:12;28.10;33.50
18177;DHT22;9213;50.858;3.964;2023-09-19T08:57:46;28.20;33.50
18177;DHT22;9213;50.858;3.964;2023-09-19T09:00:16;28.10;33.30
18177;DHT22;9213;50.858;3.964;2023-09-19T09:02:46;28.20;33.50
18177;DHT22;9213;50.858;3.964;2023-09-19T09:05:15;28.30;33.40
18177;DHT22;9213;50.858;3.964;2023-09-19T09:07:48;28.30;33.00
18177;DHT22;9213;50.858;3.964;2023-09-19T09:10:17;28.30;33.00
18177;DHT22;9213;50.858;3.964;2023-09-19T09:12:44;28.20;32.90
18177;DHT22;9213;50.858;3.964;2023-09-19T09:15:12;28.20;33.20
18177;DHT22;9213;50.858;3.964;2023-09-19T09:17:42;28.20;33.00
18177;DHT22;9213;50.858;3.964;2023-09-19T09:20:11;28.10;32.90
18177;DHT22;9213;50.858;3.964;2023-09-19T09:22:50;28.00;32.80
18177;DHT22;9213;50.858;3.964;2023-09-19T09:25:17;28.00;33.30
18177;DHT22;9213;50.858;3.964;2023-09-19T09:27:48;28.00;33.60
18177;DHT22;9213;50.858;3.964;2023-09-19T09:30:33;28.00;33.60
18177;DHT22;9213;50.858;3.964;2023-09-19T09:33:10;28.00;33.60
18177;DHT22;9213;50.858;3.964;2023-09-19T09:35:37;27.90;33.10
18177;DHT22;9213;50.858;3.964;2023-09-19T09:38:15;27.80;33.30
18177;DHT22;9213;50.858;3.964;2023-09-19T09:40:48;27.60;33.90
18177;DHT22;9213;50.858;3.964;2023-09-19T09:43:32;27.50;34.20
18177;DHT22;9213;50.858;3.964;2023-09-19T09:46:13;27.50;34.30
18177;DHT22;9213;50.858;3.964;2023-09-19T09:48:59;27.40;34.50
18177;DHT22;9213;50.858;3.964;2023-09-19T09:51:42;27.30;34.80
18177;DHT22;9213;50.858;3.964;2023-09-19T09:54:14;27.10;35.00
18177;DHT22;9213;50.858;3.964;2023-09-19T09:56:56;27.10;35.10
18177;DHT22;9213;50.858;3.964;2023-09-19T09:59:46;27.10;35.40
18177;DHT22;9213;50.858;3.964;2023-09-19T10:02:14;27.20;35.70
18177;DHT22;9213;50.858;3.964;2023-09-19T10:04:46;27.20;35.50
18177;DHT22;9213;50.858;3.964;2023-09-19T10:07:25;27.30;35.30
18177;DHT22;9213;50.858;3.964;2023-09-19T10:09:59;27.60;34.80
18177;DHT22;9213;50.858;3.964;2023-09-19T10:12:38;27.70;34.40
18177;DHT22;9213;50.858;3.964;2023-09-19T10:15:07;27.90;34.30
18177;DHT22;9213;50.858;3.964;2023-09-19T10:17:36;28.00;34.00
18177;DHT22;9213;50.858;3.964;2023-09-19T10:20:06;28.10;33.40
18177;DHT22;9213;50.858;3.964;2023-09-19T10:22:46;28.20;33.40
18177;DHT22;9213;50.858;3.964;2023-09-19T10:25:25;28.30;34.00
18177;DHT22;9213;50.858;3.964;2023-09-19T10:27:54;28.40;33.50
18177;DHT22;9213;50.858;3.964;2023-09-19T10:30:24;28.40;33.30
18177;DHT22;9213;50.858;3.964;2023-09-19T10:32:57;28.40;32.50
18177;DHT22;9213;50.858;3.964;2023-09-19T10:35:26;28.50;32.90
18177;DHT22;9213;50.858;3.964;2023-09-19T10:37:56;28.40;33.00
18177;DHT22;9213;50.858;3.964;2023-09-19T10:40:27;28.50;32.90
18177;DHT22;9213;50.858;3.964;2023-09-19T10:43:01;28.70;33.20
18177;DHT22;9213;50.858;3.964;2023-09-19T10:45:31;28.90;33.20
18177;DHT22;9213;50.858;3.964;2023-09-19T10:47:58;29.00;32.60
18177;DHT22;9213;50.858;3.964;2023-09-19T10:50:28;29.10;31.90
18177;DHT22;9213;50.858;3.964;2023-09-19T10:53:00;29.10;32.10
18177;DHT22;9213;50.858;3.964;2023-09-19T10:55:32;29.20;32.10
18177;DHT22;9213;50.858;3.964;2023-09-19T10:58:01;29.20;32.10
18177;DHT22;9213;50.858;3.964;2023-09-19T11:00:54;29.20;32.30
18177;DHT22;9213;50.858;3.964;2023-09-19T11:03:22;29.40;32.40
18177;DHT22;9213;50.858;3.964;2023-09-19T11:06:06;29.40;31.90
18177;DHT22;9213;50.858;3.964;2023-09-19T11:08:56;29.50;31.80
18177;DHT22;9213;50.858;3.964;2023-09-19T11:11:44;29.70;31.60
18177;DHT22;9213;50.858;3.964;2023-09-19T11:14:40;29.60;31.60
18177;DHT22;9213;50.858;3.964;2023-09-19T11:17:40;29.60;31.80
18177;DHT22;9213;50.858;3.964;2023-09-19T11:20:24;29.60;32.00
18177;DHT22;9213;50.858;3.964;2023-09-19T11:23:20;29.50;31.40
18177;DHT22;9213;50.858;3.964;2023-09-19T11:25:51;29.50;31.50
18177;DHT22;9213;50.858;3.964;2023-09-19T11:28:34;29.40;31.60
18177;DHT22;9213;50.858;3.964;2023-09-19T11:34:54;29.60;31.50
18177;DHT22;9213;50.858;3.964;2023-09-19T11:38:00;29.60;30.90
18177;DHT22;9213;50.858;3.964;2023-09-19T11:40:52;29.60;31.30
18177;DHT22;9213;50.858;3.964;2023-09-19T11:43:37;29.60;30.90
18177;DHT22;9213;50.858;3.964;2023-09-19T11:46:08;29.60;30.60
18177;DHT22;9213;50.858;3.964;2023-09-19T11:48:39;29.60;30.70
18177;DHT22;9213;50.858;3.964;2023-09-19T11:51:18;29.60;30.70
18177;DHT22;9213;50.858;3.964;2023-09-19T11:53:56;29.60;30.70
18177;DHT22;9213;50.858;3.964;2023-09-19T11:56:26;29.50;30.90
18177;DHT22;9213;50.858;3.964;2023-09-19T11:58:56;29.50;30.90
18177;DHT22;9213;50.858;3.964;2023-09-19T12:01:25;29.40;31.00
18177;DHT22;9213;50.858;3.964;2023-09-19T12:03:55;29.40;30.90
18177;DHT22;9213;50.858;3.964;2023-09-19T12:06:24;29.40;31.20
18177;DHT22;9213;50.858;3.964;2023-09-19T12:08:52;29.40;31.20
18177;DHT22;9213;50.858;3.964;2023-09-19T12:11:22;29.40;30.90
18177;DHT22;9213;50.858;3.964;2023-09-19T12:13:50;29.40;31.10
18177;DHT22;9213;50.858;3.964;2023-09-19T12:16:20;29.40;30.90
18177;DHT22;9213;50.858;3.964;2023-09-19T12:18:49;29.30;31.10
18177;DHT22;9213;50.858;3.964;2023-09-19T12:21:27;29.30;31.20
18177;DHT22;9213;50.858;3.964;2023-09-19T12:24:03;29.20;31.20
18177;DHT22;9213;50.858;3.964;2023-09-19T12:26:30;29.20;32.00
18177;DHT22;9213;50.858;3.964;2023-09-19T12:29:04;29.10;32.10
18177;DHT22;9213;50.858;3.964;2023-09-19T12:31:32;29.20;32.00
18177;DHT22;9213;50.858;3.964;2023-09-19T12:34:02;29.20;31.70
18177;DHT22;9213;50.858;3.964;2023-09-19T12:36:30;29.30;31.80
18177;DHT22;9213;50.858;3.964;2023-09-19T12:39:00;29.40;31.60
18177;DHT22;9213;50.858;3.964;2023-09-19T12:41:34;29.40;31.90
18177;DHT22;9213;50.858;3.964;2023-09-19T12:44:01;29.40;31.50
18177;DHT22;9213;50.858;3.964;2023-09-19T12:46:32;29.30;31.80
18177;DHT22;9213;50.858;3.964;2023-09-19T12:49:18;29.40;31.80
18177;DHT22;9213;50.858;3.964;2023-09-19T12:51:46;29.50;31.90
18177;DHT22;9213;50.858;3.964;2023-09-19T12:54:13;29.40;31.60
18177;DHT22;9213;50.858;3.964;2023-09-19T12:56:42;29.40;31.80
18177;DHT22;9213;50.858;3.964;2023-09-19T12:59:12;29.30;32.10
18177;DHT22;9213;50.858;3.964;2023-09-19T13:01:41;29.20;32.00
18177;DHT22;9213;50.858;3.964;2023-09-19T13:04:13;29.20;32.00
18177;DHT22;9213;50.858;3.964;2023-09-19T13:06:44;29.10;32.10
18177;DHT22;9213;50.858;3.964;2023-09-19T13:09:11;29.00;32.60
18177;DHT22;9213;50.858;3.964;2023-09-19T13:11:40;29.00;32.00
18177;DHT22;9213;50.858;3.964;2023-09-19T13:14:20;29.00;32.30
18177;DHT22;9213;50.858;3.964;2023-09-19T13:16:58;29.00;32.00
18177;DHT22;9213;50.858;3.964;2023-09-19T13:19:40;28.90;32.30
18177;DHT22;9213;50.858;3.964;2023-09-19T13:22:37;29.00;33.00
18177;DHT22;9213;50.858;3.964;2023-09-19T13:25:06;29.10;32.90
18177;DHT22;9213;50.858;3.964;2023-09-19T13:27:34;29.10;32.20
18177;DHT22;9213;50.858;3.964;2023-09-19T13:30:01;29.10;32.20
18177;DHT22;9213;50.858;3.964;2023-09-19T13:32:29;29.00;32.30
18177;DHT22;9213;50.858;3.964;2023-09-19T13:34:56;28.90;32.20
18177;DHT22;9213;50.858;3.964;2023-09-19T13:37:23;28.80;32.00
18177;DHT22;9213;50.858;3.964;2023-09-19T13:39:52;28.70;32.20
18177;DHT22;9213;50.858;3.964;2023-09-19T13:42:19;28.60;32.80
18177;DHT22;9213;50.858;3.964;2023-09-19T13:44:47;28.50;32.50
18177;DHT22;9213;50.858;3.964;2023-09-19T13:47:14;28.40;32.60
18177;DHT22;9213;50.858;3.964;2023-09-19T13:49:43;28.30;32.80
18177;DHT22;9213;50.858;3.964;2023-09-19T13:52:10;28.20;33.10
18177;DHT22;9213;50.858;3.964;2023-09-19T13:54:38;28.20;33.20
18177;DHT22;9213;50.858;3.964;2023-09-19T13:57:05;28.20;33.20
18177;DHT22;9213;50.858;3.964;2023-09-19T13:59:33;28.10;33.30
18177;DHT22;9213;50.858;3.964;2023-09-19T14:02:00;28.00;33.50
18177;DHT22;9213;50.858;3.964;2023-09-19T14:04:28;28.00;33.80
18177;DHT22;9213;50.858;3.964;2023-09-19T14:06:58;28.00;34.20
18177;DHT22;9213;50.858;3.964;2023-09-19T14:09:26;28.00;34.20
18177;DHT22;9213;50.858;3.964;2023-09-19T14:11:53;28.00;33.90
18177;DHT22;9213;50.858;3.964;2023-09-19T14:14:20;28.10;33.90
18177;DHT22;9213;50.858;3.964;2023-09-19T14:16:47;28.00;34.30
18177;DHT22;9213;50.858;3.964;2023-09-19T14:19:14;28.10;34.30
18177;DHT22;9213;50.858;3.964;2023-09-19T14:21:42;28.10;34.10
18177;DHT22;9213;50.858;3.964;2023-09-19T14:24:10;28.10;33.90
18177;DHT22;9213;50.858;3.964;2023-09-19T14:26:41;28.10;33.90
18177;DHT22;9213;50.858;3.964;2023-09-19T14:29:08;28.00;34.00
18177;DHT22;9213;50.858;3.964;2023-09-19T14:31:37;27.90;33.70
18177;DHT22;9213;50.858;3.964;2023-09-19T14:34:05;27.90;34.00
18177;DHT22;9213;50.858;3.964;2023-09-19T14:36:35;27.70;34.00
18177;DHT22;9213;50.858;3.964;2023-09-19T14:39:03;27.60;34.30
18177;DHT22;9213;50.858;3.964;2023-09-19T14:41:31;27.50;35.10
18177;DHT22;9213;50.858;3.964;2023-09-19T14:43:58;27.30;35.20
18177;DHT22;9213;50.858;3.964;2023-09-19T14:46:25;27.20;35.40
18177;DHT22;9213;50.858;3.964;2023-09-19T14:48:52;27.10;35.80
18177;DHT22;9213;50.858;3.964;2023-09-19T14:51:19;27.00;36.10
18177;DHT22;9213;50.858;3.964;2023-09-19T14:53:46;26.90;35.60
18177;DHT22;9213;50.858;3.964;2023-09-19T14:56:13;26.80;35.70
18177;DHT22;9213;50.858;3.964;2023-09-19T14:58:45;26.70;36.00
18177;DHT22;9213;50.858;3.964;2023-09-19T15:01:13;26.70;36.20
18177;DHT22;9213;50.858;3.964;2023-09-19T15:03:41;26.60;36.60
18177;DHT22;9213;50.858;3.964;2023-09-19T15:06:10;26.60;36.60
18177;DHT22;9213;50.858;3.964;2023-09-19T15:08:40;26.60;36.50
18177;DHT22;9213;50.858;3.964;2023-09-19T15:11:11;26.60;36.70
18177;DHT22;9213;50.858;3.964;2023-09-19T15:13:39;26.50;36.60
18177;DHT22;9213;50.858;3.964;2023-09-19T15:16:08;26.40;36.90
18177;DHT22;9213;50.858;3.964;2023-09-19T15:18:36;26.30;37.40
18177;DHT22;9213;50.858;3.964;2023-09-19T15:21:05;26.20;37.50
18177;DHT22;9213;50.858;3.964;2023-09-19T15:23:32;26.10;37.50
18177;DHT22;9213;50.858;3.964;2023-09-19T15:25:59;26.00;37.90
18177;DHT22;9213;50.858;3.964;2023-09-19T15:28:26;26.00;38.00
18177;DHT22;9213;50.858;3.964;2023-09-19T15:30:58;26.00;38.00
18177;DHT22;9213;50.858;3.964;2023-09-19T15:33:27;26.00;38.10
18177;DHT22;9213;50.858;3.964;2023-09-19T15:36:01;25.90;37.70
18177;DHT22;9213;50.858;3.964;2023-09-19T15:38:29;25.90;37.70
18177;DHT22;9213;50.858;3.964;2023-09-19T15:40:57;25.90;37.90
18177;DHT22;9213;50.858;3.964;2023-09-19T15:43:24;25.90;38.10
18177;DHT22;9213;50.858;3.964;2023-09-19T15:45:51;25.80;38.10
18177;DHT22;9213;50.858;3.964;2023-09-19T15:48:18;25.80;38.30
18177;DHT22;9213;50.858;3.964;2023-09-19T15:50:48;25.70;38.20
18177;DHT22;9213;50.858;3.964;2023-09-19T15:53:15;25.70;38.50
18177;DHT22;9213;50.858;3.964;2023-09-19T15:55:43;25.70;38.40
18177;DHT22;9213;50.858;3.964;2023-09-19T15:58:10;25.60;38.50
18177;DHT22;9213;50.858;3.964;2023-09-19T16:00:40;25.60;38.70
18177;DHT22;9213;50.858;3.964;2023-09-19T16:03:06;25.60;38.80
18177;DHT22;9213;50.858;3.964;2023-09-19T16:05:35;25.50;38.80
18177;DHT22;9213;50.858;3.964;2023-09-19T16:08:07;25.50;39.00
18177;DHT22;9213;50.858;3.964;2023-09-19T16:10:37;25.50;39.10